Time;durP1;ratioP1;P1;durP2;ratioP2;P2;SDS_P1;SDS_P2;PMS_P1;PMS_P2;Temp;Humidity;BMP_temperature;BMP_pressure;BME280_temperature;BME280_humidity;BME280_pressure;Samples;Min_cycle;Max_cycle;Signal;HPM_P1;HPM_P2
2023/03/23 00:02:28;;;;;;;89.20;46.80;;;6.20;99.90;;;;;;4936787;29;20381;-76
2023/03/23 00:04:55;;;;;;;87.68;48.95;;;6.20;99.90;;;;;;4936293;29;20039;-76
2023/03/23 00:07:27;;;;;;;98.30;50.17;;;6.20;1.00;;;;;;4953551;29;20057;-76
2023/03/23 00:09:56;;;;;;;94.70;50.85;;;6.10;1.00;;;;;;4951879;28;20039;-75
2023/03/23 00:12:32;;;;;;;96.90;53.50;;;6.10;1.00;;;;;;4953161;29;20043;-76
2023/03/23 00:15:00;;;;;;;95.55;52.03;;;6.00;67.80;;;;;;4950607;29;20039;-76
2023/03/23 00:17:28;;;;;;;92.30;48.70;;;5.90;99.90;;;;;;4934969;29;20530;-76
2023/03/23 00:19:56;;;;;;;88.53;48.03;;;5.90;1.00;;;;;;4952240;29;20041;-76
2023/03/23 00:22:24;;;;;;;87.75;48.15;;;5.90;1.00;;;;;;4952600;29;20043;-76
2023/03/23 00:24:52;;;;;;;94.22;47.25;;;5.90;1.00;;;;;;4952543;29;20076;-77
2023/03/23 00:27:21;;;;;;;85.15;44.40;;;5.90;1.00;;;;;;4953245;29;20058;-76
2023/03/23 00:29:53;;;;;;;74.78;39.33;;;5.90;1.00;;;;;;4951375;28;20468;-75
2023/03/23 00:32:26;;;;;;;74.90;40.63;;;5.80;1.00;;;;;;4934047;29;20048;-75
2023/03/23 00:34:54;;;;;;;72.53;38.90;;;5.80;99.90;;;;;;4951184;29;20077;-75
2023/03/23 00:37:24;;;;;;;66.32;38.38;;;5.80;99.90;;;;;;4933726;29;20043;-75
2023/03/23 00:39:56;;;;;;;67.38;39.28;;;5.80;1.00;;;;;;4954913;29;20494;-75
2023/03/23 00:42:25;;;;;;;69.97;40.53;;;5.70;1.00;;;;;;4969871;29;20200;-77
2023/03/23 00:44:59;;;;;;;60.03;35.97;;;5.70;1.00;;;;;;4963568;29;20051;-77
2023/03/23 00:47:27;;;;;;;58.67;34.33;;;5.70;99.90;;;;;;4943787;29;20055;-76
2023/03/23 00:49:56;;;;;;;78.88;42.40;;;5.70;1.00;;;;;;4935333;29;20047;-77
2023/03/23 00:52:23;;;;;;;74.32;41.78;;;5.60;99.90;;;;;;4934577;29;20181;-75
2023/03/23 00:54:51;;;;;;;70.30;43.28;;;5.60;1.00;;;;;;4952819;29;20131;-75
2023/03/23 00:57:23;;;;;;;71.18;41.63;;;5.50;1.00;;;;;;4964226;23;20439;-74
2023/03/23 00:59:51;;;;;;;71.53;40.47;;;5.50;99.90;;;;;;4942215;28;20039;-74
2023/03/23 01:02:24;;;;;;;68.70;42.42;;;5.50;99.90;;;;;;4942650;28;20039;-75
2023/03/23 01:04:52;;;;;;;68.57;42.08;;;5.50;1.00;;;;;;4944304;28;20035;-79
2023/03/23 01:07:20;;;;;;;66.22;40.67;;;5.50;8.00;;;;;;4945259;28;20039;-76
2023/03/23 01:09:48;;;;;;;67.30;39.92;;;5.40;99.90;;;;;;4961232;28;20089;-77
2023/03/23 01:12:16;;;;;;;63.17;40.20;;;5.40;99.90;;;;;;4962308;28;20059;-75
2023/03/23 01:14:43;;;;;;;67.57;38.88;;;5.50;99.90;;;;;;4962173;28;20047;-75
2023/03/23 01:17:10;;;;;;;57.63;36.20;;;5.40;99.90;;;;;;4962532;28;20038;-78
2023/03/23 01:19:40;;;;;;;64.30;38.03;;;5.40;1.00;;;;;;4945026;28;20499;-75
2023/03/23 01:22:07;;;;;;;58.85;36.10;;;5.30;99.90;;;;;;4946648;28;20059;-74
2023/03/23 01:24:35;;;;;;;59.67;34.08;;;5.30;1.00;;;;;;4961474;28;20420;-78
2023/03/23 01:27:06;;;;;;;56.85;33.75;;;5.30;1.00;;;;;;4962656;28;20045;-75
2023/03/23 01:29:34;;;;;;;62.65;36.72;;;5.20;1.00;;;;;;4947541;28;20126;-75
2023/03/23 01:32:02;;;;;;;61.28;35.60;;;5.20;1.00;;;;;;4969067;28;20043;-76
2023/03/23 01:34:31;;;;;;;59.28;33.20;;;5.20;1.00;;;;;;4965890;28;20057;-74
2023/03/23 01:37:00;;;;;;;59.85;34.38;;;5.20;99.90;;;;;;4953214;28;20044;-74
2023/03/23 01:39:45;;;;;;;67.25;34.97;;;5.10;1.00;;;;;;5102497;27;20896;-76
2023/03/23 01:42:13;;;;;;;63.67;33.58;;;5.10;1.00;;;;;;5080335;28;20059;-76
2023/03/23 01:45:26;;;;;;;53.22;30.35;;;5.10;99.90;;;;;;5077485;28;20137;-78
2023/03/23 01:48:05;;;;;;;52.65;29.25;;;5.00;1.00;;;;;;5088797;28;20056;-79
2023/03/23 01:50:37;;;;;;;61.22;31.20;;;5.00;1.00;;;;;;5090469;28;20037;-76
2023/03/23 01:53:09;;;;;;;61.78;33.25;;;5.00;1.00;;;;;;5092732;28;20068;-74
2023/03/23 01:55:41;;;;;;;61.45;33.08;;;5.00;1.00;;;;;;5088078;28;20052;-76
2023/03/23 01:58:10;;;;;;;68.25;36.03;;;5.00;1.00;;;;;;5090940;28;20136;-76
2023/03/23 02:00:42;;;;;;;76.55;38.78;;;5.00;1.00;;;;;;5078078;28;20571;-78
2023/03/23 02:03:13;;;;;;;67.60;39.97;;;5.00;1.00;;;;;;5073594;28;20049;-77
2023/03/23 02:05:43;;;;;;;63.78;35.63;;;4.90;1.00;;;;;;5075372;28;20040;-78
2023/03/23 02:08:29;;;;;;;59.65;33.72;;;4.90;1.00;;;;;;5073684;28;20563;-74
2023/03/23 02:10:58;;;;;;;56.13;33.05;;;4.90;1.00;;;;;;5078389;28;20044;-75
2023/03/23 02:13:27;;;;;;;56.35;32.38;;;4.90;1.00;;;;;;5074716;28;20041;-80
2023/03/23 02:16:03;;;;;;;58.92;32.30;;;4.90;1.00;;;;;;5076742;28;20041;-79
2023/03/23 02:18:51;;;;;;;53.45;29.95;;;4.90;1.00;;;;;;5081159;28;20056;-79
2023/03/23 02:21:57;;;;;;;51.70;28.85;;;4.90;1.00;;;;;;5073668;28;20496;-79
2023/03/23 02:24:56;;;;;;;48.20;25.42;;;4.90;1.00;;;;;;4975142;28;20077;-73
2023/03/23 02:28:04;;;;;;;43.55;25.13;;;4.80;1.00;;;;;;4960678;28;20046;-75
2023/03/23 02:30:57;;;;;;;42.35;24.77;;;4.80;99.90;;;;;;4954329;28;20654;-76
2023/03/23 02:33:41;;;;;;;48.55;26.33;;;4.80;1.00;;;;;;4969603;28;20137;-78
2023/03/23 02:36:20;;;;;;;45.35;26.23;;;4.80;1.00;;;;;;4970601;28;20075;-76
2023/03/23 02:38:56;;;;;;;45.92;26.52;;;4.80;1.00;;;;;;4956317;28;20693;-80
2023/03/23 02:41:25;;;;;;;;;;;4.70;1.00;;;;;;4955317;28;20043;-79
2023/03/23 02:43:53;;;;;;;45.72;28.42;;;4.70;1.00;;;;;;4954757;28;19964;-79
2023/03/23 02:46:23;;;;;;;42.28;26.40;;;4.70;1.00;;;;;;4956134;28;20058;-78
2023/03/23 02:48:56;;;;;;;45.88;28.08;;;4.70;1.00;;;;;;4956499;28;20074;-76
2023/03/23 02:51:25;;;;;;;41.45;26.33;;;4.70;1.00;;;;;;4944055;28;20049;-75
2023/03/23 02:53:55;;;;;;;37.75;24.58;;;4.70;1.00;;;;;;4942406;28;20086;-76
2023/03/23 02:56:26;;;;;;;41.30;25.20;;;4.60;1.00;;;;;;4960226;28;20043;-75
2023/03/23 02:58:53;;;;;;;45.28;28.33;;;4.60;1.00;;;;;;4947357;28;20545;-73
2023/03/23 03:01:50;;;;;;;55.80;33.70;;;4.60;1.00;;;;;;5011988;28;20044;-75
2023/03/23 03:04:22;;;;;;;45.78;28.80;;;4.60;1.00;;;;;;5064149;28;20128;-76
2023/03/23 03:07:08;;;;;;;46.22;29.25;;;4.50;1.00;;;;;;5060865;28;20141;-79
2023/03/23 03:09:43;;;;;;;44.97;28.75;;;4.50;99.90;;;;;;5078476;28;20053;-80
2023/03/23 03:12:20;;;;;;;45.55;28.67;;;4.50;99.90;;;;;;5058872;28;20381;-79
2023/03/23 03:14:56;;;;;;;42.78;28.60;;;4.40;99.90;;;;;;5058144;28;20049;-76
2023/03/23 03:17:26;;;;;;;47.38;27.67;;;4.50;99.90;;;;;;5058323;28;20083;-75
2023/03/23 03:19:59;;;;;;;45.80;26.40;;;4.40;99.90;;;;;;5058021;28;20032;-77
2023/03/23 03:22:29;;;;;;;44.47;25.27;;;4.40;99.90;;;;;;5059087;28;20049;-77
2023/03/23 03:24:59;;;;;;;40.88;23.70;;;4.40;99.90;;;;;;5058140;28;20037;-75
2023/03/23 03:27:28;;;;;;;40.55;23.02;;;4.40;99.90;;;;;;5062522;28;20207;-77
2023/03/23 03:30:12;;;;;;;42.15;23.80;;;4.30;99.90;;;;;;5067279;28;20051;-75
2023/03/23 03:32:48;;;;;;;40.20;23.48;;;4.30;99.90;;;;;;5069488;28;20055;-76
2023/03/23 03:35:18;;;;;;;39.75;23.55;;;4.30;99.90;;;;;;5073299;28;20048;-74
2023/03/23 03:37:46;;;;;;;39.72;23.05;;;4.40;99.90;;;;;;5062053;28;20052;-78
2023/03/23 03:40:16;;;;;;;40.33;24.80;;;4.30;99.90;;;;;;5059748;28;20094;-78
2023/03/23 03:42:46;;;;;;;36.10;20.65;;;4.30;99.90;;;;;;5059481;28;20067;-78
2023/03/23 03:45:15;;;;;;;39.55;21.67;;;4.30;99.90;;;;;;5058571;28;20128;-78
2023/03/23 03:47:43;;;;;;;38.72;22.85;;;4.30;99.90;;;;;;5074557;28;20598;-79
2023/03/23 03:50:12;;;;;;;39.47;22.95;;;4.30;99.90;;;;;;5061294;28;20045;-75
2023/03/23 03:52:41;;;;;;;49.55;27.45;;;4.20;99.90;;;;;;5071992;28;20045;-80
2023/03/23 03:55:11;;;;;;;46.13;25.63;;;4.20;99.90;;;;;;5059180;28;20040;-79
2023/03/23 03:57:42;;;;;;;49.92;26.38;;;4.20;99.90;;;;;;5069416;28;20045;-77
2023/03/23 04:00:47;;;;;;;40.22;25.35;;;4.10;99.90;;;;;;5061845;28;20056;-77
2023/03/23 04:03:18;;;;;;;44.10;25.50;;;4.10;99.90;;;;;;5059340;28;20114;-79
2023/03/23 04:06:00;;;;;;;46.08;24.65;;;4.10;99.90;;;;;;5060428;28;20043;-78
2023/03/23 04:08:29;;;;;;;41.80;21.73;;;4.10;99.90;;;;;;5060480;28;20098;-77
2023/03/23 04:10:56;;;;;;;36.00;21.08;;;4.10;99.90;;;;;;5056536;28;20041;-79
2023/03/23 04:13:25;;;;;;;36.55;19.33;;;4.10;99.90;;;;;;5077617;28;20120;-77
2023/03/23 04:16:11;;;;;;;33.90;20.50;;;4.10;99.90;;;;;;5064124;28;20052;-74
2023/03/23 04:18:42;;;;;;;39.90;22.00;;;4.10;99.90;;;;;;5066466;28;20037;-74
2023/03/23 04:21:10;;;;;;;44.75;23.48;;;4.10;99.90;;;;;;5058571;28;20044;-77
2023/03/23 04:23:40;;;;;;;39.20;22.60;;;4.00;99.90;;;;;;5068235;28;20037;-76
2023/03/23 04:26:12;;;;;;;43.67;23.30;;;4.10;99.90;;;;;;5077120;28;20041;-74
2023/03/23 04:28:43;;;;;;;41.63;22.88;;;4.00;99.90;;;;;;5075161;28;20041;-77
2023/03/23 04:31:31;;;;;;;44.10;23.88;;;4.00;99.90;;;;;;5050557;28;20148;-77
2023/03/23 04:34:21;;;;;;;40.03;25.05;;;4.00;99.90;;;;;;5058108;28;20496;-81
2023/03/23 04:36:52;;;;;;;42.35;26.20;;;4.00;99.90;;;;;;5059930;28;20041;-76
2023/03/23 04:39:28;;;;;;;49.78;28.45;;;4.00;99.90;;;;;;5057596;28;20106;-80
2023/03/23 04:42:01;;;;;;;45.83;28.63;;;4.00;99.90;;;;;;5059092;28;20033;-78
2023/03/23 04:44:54;;;;;;;45.25;28.17;;;3.90;99.90;;;;;;5058509;28;20059;-79
2023/03/23 04:47:29;;;;;;;46.15;29.80;;;3.90;99.90;;;;;;5056743;28;20170;-74
2023/03/23 04:49:59;;;;;;;47.33;28.65;;;4.00;99.90;;;;;;5053605;28;20045;-79
2023/03/23 04:52:37;;;;;;;43.53;27.65;;;4.00;99.90;;;;;;5057917;28;20037;-79
2023/03/23 04:55:09;;;;;;;41.45;26.13;;;3.90;99.90;;;;;;5056645;28;20041;-77
2023/03/23 04:57:38;;;;;;;43.80;26.35;;;4.00;99.90;;;;;;5074817;28;20048;-73
2023/03/23 05:00:34;;;;;;;;;;;4.00;99.90;;;;;;5060963;28;20182;-75
2023/03/23 05:03:04;;;;;;;61.85;35.13;;;4.00;99.90;;;;;;5068663;28;19924;-76
2023/03/23 05:05:34;;;;;;;63.30;36.90;;;3.90;99.90;;;;;;5066392;28;20075;-75
2023/03/23 05:08:06;;;;;;;59.65;34.85;;;4.00;99.90;;;;;;5061024;28;20507;-78
2023/03/23 05:10:39;;;;;;;53.22;33.95;;;4.00;99.90;;;;;;5059592;28;20033;-75
2023/03/23 05:13:11;;;;;;;59.05;33.67;;;4.00;99.90;;;;;;5053774;28;20068;-74
2023/03/23 05:15:38;;;;;;;58.03;32.83;;;4.10;99.90;;;;;;5058384;28;20113;-75
2023/03/23 05:18:09;;;;;;;61.78;31.88;;;4.10;99.90;;;;;;5054004;28;20044;-77
2023/03/23 05:20:38;;;;;;;58.25;33.25;;;4.20;99.90;;;;;;5061418;28;20037;-77
2023/03/23 05:23:14;;;;;;;61.53;34.53;;;4.20;99.90;;;;;;5063834;28;20037;-78
2023/03/23 05:25:43;;;;;;;60.97;34.60;;;4.20;99.90;;;;;;5073043;28;20052;-74
2023/03/23 05:28:16;;;;;;;62.13;34.40;;;4.30;99.90;;;;;;5077072;28;20040;-73
2023/03/23 05:30:52;;;;;;;;;;;4.30;99.90;;;;;;5076249;28;20060;-74
2023/03/23 05:33:23;;;;;;;47.00;27.95;;;4.30;99.90;;;;;;5074978;28;19944;-75
2023/03/23 05:35:57;;;;;;;39.75;24.50;;;4.40;99.90;;;;;;5066447;28;20051;-75
2023/03/23 05:38:30;;;;;;;36.75;21.80;;;4.60;99.90;;;;;;5066291;28;20098;-73
2023/03/23 05:41:02;;;;;;;40.63;21.90;;;4.60;99.90;;;;;;5068864;28;20045;-75
2023/03/23 05:43:38;;;;;;;34.33;20.63;;;4.70;99.90;;;;;;5062616;28;20048;-73
2023/03/23 05:46:38;;;;;;;35.33;21.27;;;4.70;81.90;;;;;;5047557;28;20052;-72
2023/03/23 05:49:05;;;;;;;48.67;27.30;;;4.80;65.50;;;;;;5069801;28;20087;-76
2023/03/23 05:51:39;;;;;;;53.65;26.30;;;4.90;99.90;;;;;;5075746;28;20049;-73
2023/03/23 05:54:08;;;;;;;41.53;24.33;;;5.20;99.90;;;;;;5065469;28;20048;-75
2023/03/23 05:56:38;;;;;;;34.75;19.60;;;5.30;51.00;;;;;;5065487;28;20457;-78
2023/03/23 05:59:22;;;;;;;40.47;22.85;;;5.60;1.00;;;;;;5061896;28;20437;-76
2023/03/23 06:01:55;;;;;;;43.63;28.40;;;5.80;1.00;;;;;;5059946;28;20041;-77
2023/03/23 06:04:24;;;;;;;44.33;23.88;;;6.00;1.00;;;;;;5057559;28;20041;-78
2023/03/23 06:07:14;;;;;;;34.70;20.60;;;6.10;1.00;;;;;;5054715;28;20068;-78
2023/03/23 06:09:49;;;;;;;48.38;23.52;;;6.40;1.00;;;;;;5055904;28;20464;-77
2023/03/23 06:12:27;;;;;;;43.40;26.25;;;6.70;1.00;;;;;;5055400;28;20040;-79
2023/03/23 06:15:14;;;;;;;54.92;29.15;;;7.00;1.00;;;;;;5055724;28;20056;-78
2023/03/23 06:18:02;;;;;;;47.67;26.48;;;7.30;1.00;;;;;;5058096;28;20512;-77
2023/03/23 06:20:54;;;;;;;51.88;28.10;;;7.60;1.00;;;;;;5047688;28;20045;-76
2023/03/23 06:23:32;;;;;;;51.63;29.45;;;7.80;1.00;;;;;;5055890;28;20111;-79
2023/03/23 06:26:03;;;;;;;58.63;30.33;;;7.80;1.00;;;;;;5060208;28;20326;-77
2023/03/23 06:28:33;;;;;;;48.65;26.90;;;7.90;1.00;;;;;;5057795;28;20554;-75
2023/03/23 06:31:01;;;;;;;40.88;24.23;;;8.00;1.00;;;;;;5057909;28;20400;-78
2023/03/23 06:33:29;;;;;;;41.40;23.33;;;8.30;1.00;;;;;;5061054;28;20305;-76
2023/03/23 06:36:20;;;;;;;48.58;26.27;;;8.50;1.00;;;;;;5030802;28;20056;-77
2023/03/23 06:39:08;;;;;;;44.15;25.23;;;8.70;1.00;;;;;;5058986;28;20393;-79
2023/03/23 06:41:51;;;;;;;49.40;28.63;;;9.00;1.00;;;;;;5058349;28;20421;-76
2023/03/23 06:44:20;;;;;;;49.33;29.23;;;9.30;1.00;;;;;;5058127;28;20045;-74
2023/03/23 06:46:48;;;;;;;51.03;30.48;;;9.50;1.00;;;;;;5064528;28;20397;-74
2023/03/23 06:49:37;;;;;;;50.13;30.38;;;9.70;1.00;;;;;;5057855;28;20049;-79
2023/03/23 06:52:17;;;;;;;54.83;31.90;;;9.80;1.00;;;;;;5058289;28;20037;-75
2023/03/23 06:54:45;;;;;;;61.38;35.60;;;10.00;1.00;;;;;;5060445;28;20112;-76
2023/03/23 06:57:14;;;;;;;66.10;39.13;;;10.30;1.00;;;;;;5062910;28;20507;-76
2023/03/23 06:59:45;;;;;;;73.40;39.38;;;10.60;1.00;;;;;;5025487;23;20498;-76
2023/03/23 07:02:14;;;;;;;64.25;37.80;;;10.90;1.00;;;;;;5015967;28;20054;-76
2023/03/23 07:04:43;;;;;;;61.55;36.03;;;11.30;1.00;;;;;;4998845;28;20057;-75
2023/03/23 07:07:19;;;;;;;56.28;31.65;;;11.50;99.90;;;;;;5010720;28;20065;-74
2023/03/23 07:09:52;;;;;;;53.63;32.05;;;11.80;99.90;;;;;;5021513;28;20046;-75
2023/03/23 07:12:23;;;;;;;61.45;34.00;;;12.10;99.90;;;;;;5039070;28;20489;-75
2023/03/23 07:14:55;;;;;;;63.13;38.53;;;12.20;99.90;;;;;;5018381;28;20065;-76
2023/03/23 07:17:22;;;;;;;59.53;34.85;;;12.40;99.90;;;;;;5017926;28;20048;-75
2023/03/23 07:20:07;;;;;;;63.60;33.85;;;12.60;99.90;;;;;;5019473;28;20045;-75
2023/03/23 07:22:35;;;;;;;53.92;33.78;;;12.70;99.90;;;;;;5017836;28;20037;-76
2023/03/23 07:25:11;;;;;;;59.53;34.17;;;12.90;99.90;;;;;;5007398;28;20041;-77
2023/03/23 07:27:47;;;;;;;52.53;29.95;;;13.20;99.90;;;;;;5032152;28;20048;-75
2023/03/23 07:30:18;;;;;;;71.03;46.05;;;13.30;99.90;;;;;;5025375;28;20060;-76
2023/03/23 07:32:46;;;;;;;58.05;36.28;;;13.30;99.90;;;;;;5018953;28;20069;-76
2023/03/23 07:35:15;;;;;;;47.40;29.10;;;13.50;99.90;;;;;;5019185;28;20041;-76
2023/03/23 07:38:13;;;;;;;49.83;27.50;;;13.70;99.90;;;;;;5010646;28;20065;-76
2023/03/23 07:40:43;;;;;;;41.65;26.42;;;14.10;99.90;;;;;;5020203;28;20046;-75
2023/03/23 07:43:20;;;;;;;44.88;28.98;;;14.30;99.90;;;;;;5020623;28;20041;-78
2023/03/23 07:46:09;;;;;;;41.95;25.58;;;14.50;99.90;;;;;;5009956;28;20143;-80
2023/03/23 07:48:47;;;;;;;57.45;42.22;;;14.70;99.90;;;;;;5019786;28;20056;-76
2023/03/23 07:51:17;;;;;;;35.55;21.30;;;14.90;99.90;;;;;;5016793;28;20107;-75
2023/03/23 07:53:48;;;;;;;39.13;24.63;;;15.10;99.90;;;;;;5018869;28;20467;-76
2023/03/23 07:56:36;;;;;;;20.83;12.30;;;15.20;99.90;;;;;;5008927;28;20131;-76
2023/03/23 07:59:16;;;;;;;20.92;10.95;;;15.30;99.90;;;;;;5034977;28;20129;-78
2023/03/23 08:01:45;;;;;;;15.75;9.30;;;15.40;99.90;;;;;;5043505;28;20501;-77
2023/03/23 08:04:36;;;;;;;17.42;8.13;;;15.50;99.90;;;;;;5021834;28;20121;-78
2023/03/23 08:07:13;;;;;;;14.93;6.95;;;15.60;99.90;;;;;;5025202;28;20144;-76
2023/03/23 08:10:00;;;;;;;17.15;8.55;;;15.80;99.90;;;;;;4990052;28;20149;-76
2023/03/23 08:13:05;;;;;;;13.90;8.55;;;15.90;99.90;;;;;;4946294;29;20047;-76
2023/03/23 08:15:56;;;;;;;12.70;6.20;;;15.90;99.90;;;;;;5005845;28;20062;-75
2023/03/23 08:18:44;;;;;;;9.23;4.85;;;16.10;99.90;;;;;;5024664;28;20167;-78
2023/03/23 08:21:37;;;;;;;12.07;5.95;;;16.30;99.90;;;;;;5016723;28;20057;-77
2023/03/23 08:24:21;;;;;;;9.38;6.05;;;16.40;99.90;;;;;;5017816;28;20046;-77
2023/03/23 08:27:17;;;;;;;13.60;7.75;;;16.40;99.90;;;;;;5022099;28;20041;-76
2023/03/23 08:30:01;;;;;;;10.52;7.15;;;16.50;99.90;;;;;;5019737;28;20069;-74
2023/03/23 08:33:09;;;;;;;13.23;7.78;;;16.60;99.90;;;;;;5007413;28;20176;-75
2023/03/23 08:35:58;;;;;;;11.75;6.22;;;16.80;99.90;;;;;;5018513;28;20076;-77
2023/03/23 08:38:55;;;;;;;13.85;6.28;;;17.00;99.90;;;;;;4992253;28;20050;-74
2023/03/23 08:41:43;;;;;;;11.18;7.15;;;17.30;99.90;;;;;;5018541;28;20076;-76
2023/03/23 08:44:20;;;;;;;17.13;10.38;;;17.50;99.90;;;;;;5019332;28;20180;-76
2023/03/23 08:47:05;;;;;;;21.00;12.20;;;17.70;99.90;;;;;;5043522;28;20124;-75
2023/03/23 08:49:53;;;;;;;22.05;13.85;;;17.80;99.90;;;;;;5018422;28;20449;-74
2023/03/23 08:52:29;;;;;;;25.63;13.63;;;17.80;99.90;;;;;;5020524;28;20128;-77
2023/03/23 08:55:17;;;;;;;26.65;14.57;;;17.80;99.90;;;;;;5018496;28;20065;-77
2023/03/23 08:58:08;;;;;;;19.65;12.18;;;17.90;99.90;;;;;;5013898;28;20100;-75
2023/03/23 09:00:56;;;;;;;21.95;14.10;;;17.90;99.90;;;;;;5040506;28;20098;-77
2023/03/23 09:03:53;;;;;;;21.25;13.32;;;17.90;99.90;;;;;;5002709;28;20046;-75
2023/03/23 09:06:36;;;;;;;18.40;12.23;;;17.90;99.90;;;;;;5039460;28;20068;-75
2023/03/23 09:09:06;;;;;;;18.95;12.35;;;18.00;99.90;;;;;;5039008;28;20126;-78
2023/03/23 09:11:34;;;;;;;17.80;10.80;;;17.90;99.90;;;;;;5040046;28;20037;-78
2023/03/23 09:14:02;;;;;;;20.10;10.80;;;18.00;99.90;;;;;;5039370;28;20041;-77
2023/03/23 09:16:29;;;;;;;18.00;11.02;;;18.10;99.90;;;;;;5037758;28;20496;-78
2023/03/23 09:18:57;;;;;;;19.05;10.82;;;18.10;99.90;;;;;;5038734;28;20039;-77
2023/03/23 09:21:25;;;;;;;20.90;12.07;;;18.20;99.90;;;;;;5042525;28;20052;-77
2023/03/23 09:23:56;;;;;;;19.33;12.32;;;18.40;99.90;;;;;;5043005;28;20546;-74
2023/03/23 09:26:25;;;;;;;16.08;10.73;;;18.40;99.90;;;;;;5039225;28;20049;-77
2023/03/23 09:28:52;;;;;;;13.90;9.65;;;18.50;99.90;;;;;;5038904;28;20080;-76
2023/03/23 09:31:22;;;;;;;18.05;10.60;;;18.60;99.90;;;;;;5038933;28;20484;-77
2023/03/23 09:33:51;;;;;;;16.35;9.75;;;18.70;99.90;;;;;;5046319;28;20060;-77
2023/03/23 09:36:21;;;;;;;15.98;10.82;;;18.70;99.90;;;;;;5043803;28;20124;-75
2023/03/23 09:38:48;;;;;;;14.35;8.85;;;18.80;99.90;;;;;;5039709;28;20037;-77
2023/03/23 09:41:38;;;;;;;11.75;8.75;;;18.80;99.90;;;;;;5040038;28;20431;-77
2023/03/23 09:44:12;;;;;;;10.50;7.22;;;18.90;99.90;;;;;;5038665;28;20068;-75
2023/03/23 09:46:52;;;;;;;11.30;7.18;;;19.00;99.90;;;;;;5038186;28;20053;-78
2023/03/23 09:49:26;;;;;;;9.18;6.65;;;19.00;99.90;;;;;;5039322;28;20640;-76
2023/03/23 09:51:57;;;;;;;9.68;6.68;;;19.10;99.90;;;;;;5048431;28;20053;-77
2023/03/23 09:54:28;;;;;;;12.18;4.90;;;19.20;99.90;;;;;;5042250;28;20072;-77
2023/03/23 09:57:00;;;;;;;7.32;4.93;;;19.20;99.90;;;;;;5049304;28;20069;-77
2023/03/23 09:59:32;;;;;;;11.90;6.65;;;19.20;99.90;;;;;;5042486;28;20041;-76
2023/03/23 10:02:11;;;;;;;12.13;5.93;;;19.30;99.90;;;;;;5047518;28;20131;-75
2023/03/23 10:04:45;;;;;;;7.35;4.22;;;19.40;99.90;;;;;;5046853;28;20049;-76
2023/03/23 10:07:15;;;;;;;7.60;4.63;;;19.40;99.90;;;;;;5043082;28;20072;-77
2023/03/23 10:09:45;;;;;;;6.90;4.30;;;19.50;99.90;;;;;;5041527;28;20041;-76
2023/03/23 10:12:22;;;;;;;5.88;3.33;;;19.60;99.90;;;;;;5041498;28;20099;-75
2023/03/23 10:15:03;;;;;;;8.82;4.07;;;19.60;99.90;;;;;;5042505;28;20042;-75
2023/03/23 10:17:35;;;;;;;6.32;2.85;;;19.70;99.90;;;;;;5042304;28;20096;-76
2023/03/23 10:20:20;;;;;;;5.28;2.33;;;19.80;99.90;;;;;;5041164;28;20049;-79
2023/03/23 10:22:54;;;;;;;7.35;3.88;;;19.70;99.90;;;;;;5042493;28;20041;-78
2023/03/23 10:25:25;;;;;;;9.68;4.95;;;19.70;99.90;;;;;;5045757;28;20052;-75
2023/03/23 10:28:03;;;;;;;7.78;4.95;;;19.80;99.90;;;;;;5055867;28;20064;-77
2023/03/23 10:30:35;;;;;;;6.40;3.92;;;19.90;99.90;;;;;;5045057;28;20044;-77
2023/03/23 10:33:05;;;;;;;6.95;4.30;;;19.90;99.90;;;;;;5043115;28;20072;-77
2023/03/23 10:35:37;;;;;;;8.57;4.53;;;20.00;99.90;;;;;;5041003;28;20068;-77
2023/03/23 10:38:07;;;;;;;7.38;4.20;;;20.10;99.90;;;;;;5041783;28;20114;-77
2023/03/23 10:40:49;;;;;;;10.27;5.28;;;20.00;99.90;;;;;;5037536;28;20038;-78
2023/03/23 10:43:18;;;;;;;7.35;4.20;;;20.10;99.90;;;;;;5044955;28;20053;-79
2023/03/23 10:45:50;;;;;;;6.35;4.30;;;20.00;99.90;;;;;;5044030;28;20033;-75
2023/03/23 10:48:23;;;;;;;10.05;5.25;;;20.10;99.90;;;;;;5023138;28;20136;-76
2023/03/23 10:50:55;;;;;;;9.38;4.90;;;20.10;99.90;;;;;;5041360;28;20135;-76
2023/03/23 10:53:26;;;;;;;9.77;5.57;;;20.20;99.90;;;;;;5042133;28;20048;-76
2023/03/23 10:55:54;;;;;;;10.93;6.47;;;20.20;99.90;;;;;;5038745;28;20536;-76
2023/03/23 10:58:29;;;;;;;9.07;3.83;;;20.20;99.90;;;;;;5041179;28;20064;-77
2023/03/23 11:00:58;;;;;;;9.85;4.78;;;20.10;99.90;;;;;;5024903;28;20058;-75
2023/03/23 11:03:38;;;;;;;8.40;4.53;;;20.10;99.90;;;;;;5042627;28;20041;-76
2023/03/23 11:06:11;;;;;;;8.93;5.25;;;20.10;99.90;;;;;;5042425;28;20041;-77
2023/03/23 11:08:49;;;;;;;7.70;4.30;;;20.10;99.90;;;;;;5040750;28;20091;-77
2023/03/23 11:11:20;;;;;;;11.88;5.38;;;20.10;99.90;;;;;;5040979;28;20049;-77
2023/03/23 11:13:52;;;;;;;10.05;5.00;;;20.10;99.90;;;;;;5039510;28;20048;-78
2023/03/23 11:16:27;;;;;;;8.82;4.47;;;20.30;99.90;;;;;;5038685;28;20041;-76
2023/03/23 11:18:55;;;;;;;8.13;4.45;;;20.40;99.90;;;;;;5021247;28;20067;-76
2023/03/23 11:21:24;;;;;;;7.60;4.43;;;20.40;99.90;;;;;;5040893;28;20563;-78
2023/03/23 11:23:54;;;;;;;6.57;4.68;;;20.50;99.90;;;;;;5040653;28;20373;-77
2023/03/23 11:26:25;;;;;;;7.05;4.20;;;20.60;99.90;;;;;;5039265;28;20497;-77
2023/03/23 11:28:58;;;;;;;9.63;5.70;;;20.60;99.90;;;;;;5039597;28;20045;-77
2023/03/23 11:31:31;;;;;;;10.60;6.38;;;20.70;99.90;;;;;;5041802;28;20045;-76
2023/03/23 11:34:02;;;;;;;6.88;4.28;;;20.70;99.90;;;;;;5039463;28;20676;-78
2023/03/23 11:36:36;;;;;;;9.07;4.20;;;20.70;99.90;;;;;;5039892;28;20044;-77
2023/03/23 11:39:06;;;;;;;8.00;4.55;;;20.70;99.90;;;;;;5039278;28;20048;-77
2023/03/23 11:41:36;;;;;;;6.97;4.50;;;20.70;99.90;;;;;;5048348;28;20034;-74
2023/03/23 11:44:12;;;;;;;8.07;5.65;;;20.60;99.90;;;;;;5020628;28;20069;-76
2023/03/23 11:46:50;;;;;;;6.65;3.70;;;20.70;99.90;;;;;;5021995;28;20046;-78
2023/03/23 11:49:27;;;;;;;7.72;5.47;;;20.70;99.90;;;;;;5038429;28;20608;-76
2023/03/23 11:52:01;;;;;;;8.90;5.00;;;20.70;99.90;;;;;;5039760;28;20044;-76
2023/03/23 11:54:37;;;;;;;6.20;4.47;;;20.80;99.90;;;;;;5038861;28;20120;-78
2023/03/23 11:57:10;;;;;;;5.25;3.70;;;20.70;99.90;;;;;;5040061;28;20045;-78
2023/03/23 11:59:39;;;;;;;7.18;4.53;;;20.70;99.90;;;;;;5021917;28;20045;-76
2023/03/23 12:02:30;;;;;;;7.88;4.55;;;20.80;99.90;;;;;;5041181;28;20045;-78
2023/03/23 12:05:28;;;;;;;5.38;3.70;;;20.80;99.90;;;;;;5041084;28;20048;-77
2023/03/23 12:08:16;;;;;;;8.68;4.35;;;20.80;99.90;;;;;;5042589;28;20049;-78
2023/03/23 12:10:54;;;;;;;6.32;4.22;;;20.90;99.90;;;;;;5045824;28;20283;-77
2023/03/23 12:13:35;;;;;;;17.73;11.93;;;21.00;99.90;;;;;;5032113;28;20489;-75
2023/03/23 12:16:26;;;;;;;17.25;11.77;;;21.00;99.90;;;;;;5044788;28;20036;-76
2023/03/23 12:19:04;;;;;;;6.85;4.55;;;21.00;99.90;;;;;;5041733;28;20050;-77
2023/03/23 12:21:43;;;;;;;9.43;4.72;;;21.10;99.90;;;;;;5044257;28;20131;-77
2023/03/23 12:24:19;;;;;;;6.45;4.40;;;21.10;99.90;;;;;;5039696;28;20501;-76
2023/03/23 12:26:55;;;;;;;5.80;4.10;;;21.10;99.90;;;;;;5040950;28;20045;-76
2023/03/23 12:29:39;;;;;;;8.23;5.55;;;21.10;99.90;;;;;;5041515;28;20049;-75
2023/03/23 12:32:32;;;;;;;9.10;5.78;;;21.20;99.90;;;;;;5037983;28;20049;-75
2023/03/23 12:35:11;;;;;;;7.72;4.10;;;21.30;99.90;;;;;;5038217;28;20037;-77
2023/03/23 12:37:50;;;;;;;5.60;3.83;;;21.40;99.90;;;;;;5039666;28;20392;-77
2023/03/23 12:40:33;;;;;;;7.85;4.32;;;21.40;99.90;;;;;;5022438;28;20488;-77
2023/03/23 12:43:06;;;;;;;8.70;4.43;;;21.40;99.90;;;;;;5040663;28;20115;-77
2023/03/23 12:45:58;;;;;;;5.00;4.03;;;21.50;99.90;;;;;;5039104;28;20040;-76
2023/03/23 12:48:30;;;;;;;7.72;4.28;;;21.50;99.90;;;;;;5043785;28;20592;-75
2023/03/23 12:51:19;;;;;;;7.72;4.72;;;21.50;99.90;;;;;;5039204;28;20080;-77
2023/03/23 12:53:54;;;;;;;11.40;6.40;;;21.40;99.90;;;;;;5039090;28;20038;-76
2023/03/23 12:56:27;;;;;;;10.77;5.70;;;21.60;99.90;;;;;;5040526;28;20050;-76
2023/03/23 12:59:01;;;;;;;9.30;4.97;;;21.60;99.90;;;;;;5036060;28;20056;-74
2023/03/23 13:01:33;;;;;;;14.25;8.80;;;21.60;99.90;;;;;;5031718;28;20070;-76
2023/03/23 13:04:08;;;;;;;7.40;5.63;;;21.60;99.90;;;;;;5015946;28;20370;-77
2023/03/23 13:06:39;;;;;;;9.00;6.00;;;21.70;99.90;;;;;;5017113;28;20547;-76
2023/03/23 13:09:12;;;;;;;9.00;6.22;;;21.70;99.90;;;;;;5018874;28;20045;-76
2023/03/23 13:11:42;;;;;;;11.43;7.38;;;21.70;99.90;;;;;;5020770;28;20075;-76
2023/03/23 13:14:27;;;;;;;9.18;4.72;;;21.70;99.90;;;;;;5019945;28;20060;-77
2023/03/23 13:17:05;;;;;;;7.53;5.45;;;21.70;99.90;;;;;;5019226;28;20080;-77
2023/03/23 13:19:55;;;;;;;13.02;9.18;;;21.80;99.90;;;;;;5023439;28;20072;-75
2023/03/23 13:22:27;;;;;;;9.98;7.13;;;21.80;99.90;;;;;;5025299;28;20129;-78
2023/03/23 13:24:58;;;;;;;9.45;6.20;;;21.70;99.90;;;;;;5020508;28;20053;-78